createdAt,value
2023-04-08T00:05:53.688Z,25.17
2023-04-08T00:11:36.109Z,25.01
2023-04-08T00:19:52.006Z,24.84
2023-04-08T00:23:02.688Z,24.74
2023-04-08T00:29:00.290Z,24.59
2023-04-08T00:34:46.180Z,24.43
2023-04-08T00:40:31.236Z,24.28
2023-04-08T00:46:18.666Z,24.16
2023-04-08T00:52:00.916Z,24.10
2023-04-08T00:57:43.690Z,23.98
2023-04-08T01:02:57.607Z,23.92
2023-04-08T01:08:37.861Z,23.84
2023-04-08T01:14:25.894Z,23.76
2023-04-08T01:25:31.845Z,23.64
2023-04-08T01:31:23.594Z,23.54
2023-04-08T01:38:35.761Z,23.42
2023-04-08T01:42:34.959Z,23.31
2023-04-08T01:47:46.253Z,23.18
2023-04-08T01:52:53.628Z,23.06
2023-04-08T01:58:00.996Z,22.87
2023-04-08T02:03:08.527Z,22.71
2023-04-08T02:08:15.480Z,22.57
2023-04-08T02:13:22.887Z,22.46
2023-04-08T02:18:30.120Z,22.33
2023-04-08T02:23:37.474Z,22.24
2023-04-08T02:28:44.743Z,22.10
2023-04-08T02:33:51.986Z,21.97
2023-04-08T02:38:59.177Z,21.83
2023-04-08T02:44:06.374Z,21.72
2023-04-08T02:49:13.559Z,21.60
2023-04-08T02:54:21.011Z,21.55
2023-04-08T02:59:28.424Z,21.48
2023-04-08T03:04:53.620Z,21.42
2023-04-08T03:09:49.036Z,21.36
2023-04-08T03:14:56.996Z,21.31
2023-04-08T03:20:04.441Z,21.23
2023-04-08T03:25:47.586Z,21.18
2023-04-08T03:31:03.969Z,21.16
2023-04-08T03:36:45.405Z,21.11
2023-04-08T03:41:52.687Z,21.05
2023-04-08T03:47:13.064Z,21.04
2023-04-08T03:52:28.994Z,21.01
2023-04-08T03:57:36.644Z,20.95
2023-04-08T04:02:46.291Z,20.94
2023-04-08T04:07:53.605Z,20.92
2023-04-08T04:13:01.000Z,20.89
2023-04-08T04:18:08.677Z,20.92
2023-04-08T04:23:16.124Z,20.89
2023-04-08T04:28:35.010Z,20.91
2023-04-08T04:33:42.653Z,20.87
2023-04-08T04:38:50.622Z,20.87
2023-04-08T04:43:57.672Z,20.86
2023-04-08T04:49:05.455Z,20.84
2023-04-08T04:54:16.349Z,20.81
2023-04-08T04:59:22.629Z,20.81
2023-04-08T05:04:33.486Z,20.79
2023-04-08T05:09:38.469Z,20.73
2023-04-08T05:14:46.069Z,20.65
2023-04-08T05:19:53.821Z,20.60
2023-04-08T05:25:41.404Z,20.74
2023-04-08T05:30:48.737Z,20.70
2023-04-08T05:35:56.576Z,20.70
2023-04-08T05:41:03.785Z,20.58
2023-04-08T05:46:11.253Z,20.45
2023-04-08T05:51:18.688Z,20.36
2023-04-08T05:56:32.251Z,20.31
2023-04-08T06:01:39.901Z,20.24
2023-04-08T06:06:47.103Z,20.21
2023-04-08T06:11:54.495Z,20.19
2023-04-08T06:17:09.048Z,20.27
2023-04-08T06:22:16.348Z,20.25
2023-04-08T06:27:23.932Z,20.26
2023-04-08T06:32:31.299Z,20.25
2023-04-08T06:37:47.259Z,20.19
2023-04-08T06:42:54.658Z,20.18
2023-04-08T06:48:02.199Z,20.15
2023-04-08T06:53:09.492Z,20.04
2023-04-08T06:58:18.768Z,20.06
2023-04-08T07:03:26.261Z,20.25
2023-04-08T07:08:33.766Z,20.34
2023-04-08T07:13:41.320Z,20.51
2023-04-08T07:18:49.291Z,20.56
2023-04-08T07:23:56.676Z,20.57
2023-04-08T07:29:04.295Z,20.51
2023-04-08T07:34:11.907Z,20.63
2023-04-08T07:39:19.278Z,20.74
2023-04-08T07:44:26.628Z,20.85
2023-04-08T07:49:33.932Z,20.95
2023-04-08T07:54:41.219Z,21.08
2023-04-08T07:59:48.421Z,21.25
2023-04-08T08:04:55.678Z,21.38
2023-04-08T08:10:02.944Z,21.51
2023-04-08T08:15:10.129Z,21.64
2023-04-08T08:20:17.357Z,21.78
2023-04-08T08:25:26.112Z,21.89
2023-04-08T08:30:33.977Z,22.01
2023-04-08T08:35:39.220Z,22.14
2023-04-08T08:40:46.686Z,22.25
2023-04-08T08:45:53.954Z,22.34
2023-04-08T08:51:01.282Z,22.49
2023-04-08T08:56:17.803Z,22.58
2023-04-08T09:01:15.686Z,22.75
2023-04-08T09:06:22.894Z,22.87
2023-04-08T09:11:30.171Z,22.94
2023-04-08T09:16:37.341Z,22.94
2023-04-08T09:21:44.529Z,22.99
2023-04-08T09:26:51.867Z,23.03
2023-04-08T09:31:59.213Z,23.08
2023-04-08T09:37:06.210Z,23.15
2023-04-08T09:42:13.495Z,23.20
2023-04-08T09:47:20.733Z,23.28
2023-04-08T09:52:27.855Z,23.36
2023-04-08T09:57:35.048Z,23.39
2023-04-08T10:02:42.391Z,23.46
2023-04-08T10:07:49.452Z,23.56
2023-04-08T10:12:56.715Z,23.73
2023-04-08T10:18:03.931Z,23.77
2023-04-08T10:23:11.054Z,23.88
2023-04-08T10:28:18.371Z,23.99
2023-04-08T10:33:25.610Z,24.02
2023-04-08T10:38:32.848Z,24.15
2023-04-08T10:43:40.122Z,24.21
2023-04-08T10:48:47.328Z,24.23
2023-04-08T10:53:54.577Z,24.21
2023-04-08T10:59:01.780Z,24.35
2023-04-08T11:04:09.013Z,24.14
2023-04-08T11:09:16.137Z,24.12
2023-04-08T11:14:23.407Z,24.01
2023-04-08T11:19:30.662Z,24.02
2023-04-08T11:24:37.870Z,24.02
2023-04-08T11:29:45.133Z,23.95
2023-04-08T11:34:52.371Z,23.88
2023-04-08T11:39:59.522Z,23.84
2023-04-08T11:45:06.853Z,23.76
2023-04-08T11:50:14.050Z,23.83
2023-04-08T11:55:21.177Z,23.88
2023-04-08T12:00:28.403Z,23.92
2023-04-08T12:05:35.576Z,24.09
2023-04-08T12:10:42.765Z,24.00
2023-04-08T12:15:50.083Z,24.00
2023-04-08T12:20:57.492Z,24.13
2023-04-08T12:26:04.697Z,24.24
2023-04-08T12:31:11.918Z,24.29
2023-04-08T12:36:19.111Z,24.11
2023-04-08T12:41:26.279Z,24.10
2023-04-08T12:46:33.510Z,24.18
2023-04-08T12:51:40.627Z,24.24
2023-04-08T12:56:47.820Z,24.24
2023-04-08T13:01:55.041Z,24.26
2023-04-08T13:07:02.219Z,24.28
2023-04-08T13:12:09.372Z,24.32
2023-04-08T13:17:16.582Z,24.38
2023-04-08T13:22:23.731Z,24.54
2023-04-08T13:27:30.924Z,24.41
2023-04-08T13:32:38.304Z,24.35
2023-04-08T13:37:45.297Z,24.38
2023-04-08T13:42:52.497Z,24.32
2023-04-08T13:47:59.933Z,24.32
2023-04-08T13:53:06.932Z,24.28
2023-04-08T13:58:22.978Z,24.14
2023-04-08T14:03:21.457Z,24.14
2023-04-08T14:08:28.514Z,24.15
2023-04-08T14:13:35.695Z,24.15
2023-04-08T14:18:42.923Z,24.19
2023-04-08T14:23:50.196Z,24.15
2023-04-08T14:28:57.440Z,24.04
2023-04-08T14:34:04.630Z,24.13
2023-04-08T14:39:11.810Z,24.25
2023-04-08T14:44:19.000Z,24.20
2023-04-08T14:49:26.289Z,24.14
2023-04-08T14:54:33.677Z,24.17
2023-04-08T14:59:40.854Z,24.29
2023-04-08T15:04:48.055Z,24.33
2023-04-08T15:09:55.188Z,24.47
2023-04-08T15:15:02.401Z,24.59
2023-04-08T15:20:09.696Z,24.66
2023-04-08T15:25:16.868Z,24.70
2023-04-08T15:30:24.101Z,24.71
2023-04-08T15:35:31.450Z,24.72
2023-04-08T15:40:38.522Z,24.75
2023-04-08T15:45:45.719Z,24.78
2023-04-08T15:50:52.965Z,24.83
2023-04-08T15:56:00.100Z,24.95
2023-04-08T16:01:07.280Z,25.02
2023-04-08T16:06:14.576Z,25.13
2023-04-08T16:11:21.757Z,25.24
2023-04-08T16:16:29.345Z,25.28
2023-04-08T16:21:36.598Z,25.35
2023-04-08T16:26:43.799Z,25.37
2023-04-08T16:31:53.187Z,25.44
2023-04-08T16:36:58.218Z,25.48
2023-04-08T16:42:05.461Z,25.46
2023-04-08T16:47:12.639Z,25.45
2023-04-08T16:52:19.853Z,25.31
2023-04-08T16:57:27.016Z,25.18
2023-04-08T17:02:34.275Z,25.13
2023-04-08T17:07:41.414Z,25.00
2023-04-08T17:12:48.571Z,24.92
2023-04-08T17:17:55.814Z,24.88
2023-04-08T17:23:03.037Z,24.87
2023-04-08T17:28:10.244Z,24.85
2023-04-08T17:33:17.515Z,24.89
2023-04-08T17:38:24.728Z,24.92
2023-04-08T17:43:31.974Z,24.92
2023-04-08T17:48:39.180Z,24.97
2023-04-08T17:53:46.493Z,24.97
2023-04-08T17:58:53.767Z,24.97
2023-04-08T18:04:01.073Z,24.98
2023-04-08T18:09:08.361Z,25.14
2023-04-08T18:14:15.592Z,25.21
2023-04-08T18:19:22.821Z,25.29
2023-04-08T18:24:30.079Z,25.34
2023-04-08T18:29:37.241Z,25.47
2023-04-08T18:34:44.494Z,25.60
2023-04-08T18:39:51.804Z,25.60
2023-04-08T18:44:59.012Z,25.61
2023-04-08T18:50:06.204Z,25.59
2023-04-08T18:55:13.489Z,25.61
2023-04-08T19:00:20.674Z,25.66
2023-04-08T19:05:27.933Z,25.69
2023-04-08T19:10:35.153Z,25.77
2023-04-08T19:15:42.360Z,25.79
2023-04-08T19:20:49.921Z,25.75
2023-04-08T19:25:57.230Z,25.84
2023-04-08T19:31:04.390Z,25.84
2023-04-08T19:36:11.649Z,25.92
2023-04-08T19:41:18.821Z,25.94
2023-04-08T19:46:26.066Z,25.82
2023-04-08T19:51:33.329Z,25.79
2023-04-08T19:56:40.640Z,25.68
2023-04-08T20:01:47.867Z,25.62
2023-04-08T20:06:55.089Z,25.44
2023-04-08T20:12:02.292Z,25.37
2023-04-08T20:17:09.518Z,25.29
2023-04-08T20:22:16.738Z,25.20
2023-04-08T20:27:23.952Z,25.15
2023-04-08T20:32:31.167Z,25.19
2023-04-08T20:37:38.319Z,25.21
2023-04-08T20:42:45.567Z,25.22
2023-04-08T20:47:52.789Z,25.25
2023-04-08T20:52:59.970Z,25.30
2023-04-08T20:58:07.265Z,25.28
2023-04-08T21:03:14.662Z,25.32
2023-04-08T21:08:21.798Z,25.23
2023-04-08T21:13:29.014Z,25.29
2023-04-08T21:18:36.179Z,25.31
2023-04-08T21:23:43.351Z,25.35
2023-04-08T21:28:50.841Z,25.37
2023-04-08T21:33:57.718Z,25.38
2023-04-08T21:39:04.904Z,25.38
2023-04-08T21:44:12.137Z,25.42
2023-04-08T21:49:19.395Z,25.43
2023-04-08T21:54:26.705Z,25.45
2023-04-08T21:59:33.974Z,25.42
2023-04-08T22:04:41.130Z,25.43
2023-04-08T22:09:48.342Z,25.39
2023-04-08T22:14:55.568Z,25.39
2023-04-08T22:20:02.719Z,25.38
2023-04-08T22:25:09.883Z,25.32
2023-04-08T22:30:17.157Z,25.29
2023-04-08T22:35:24.368Z,25.25
2023-04-08T22:40:31.651Z,25.17
2023-04-08T22:45:38.831Z,25.21
2023-04-08T22:50:46.011Z,25.23
2023-04-08T22:55:53.301Z,25.23
2023-04-08T23:01:00.510Z,25.30
2023-04-08T23:06:07.659Z,25.30
2023-04-08T23:11:14.852Z,25.35
2023-04-08T23:16:22.158Z,25.37
2023-04-08T23:21:29.210Z,25.34
2023-04-08T23:26:36.400Z,25.33
2023-04-08T23:31:43.691Z,25.28
2023-04-08T23:36:50.873Z,25.20
2023-04-08T23:41:58.144Z,25.20
2023-04-08T23:47:05.360Z,25.23
2023-04-08T23:52:12.543Z,25.29
2023-04-08T23:57:19.709Z,25.32
